createdAt,value
2022-12-26T00:00:59.862Z,94.18
2022-12-26T00:04:03.237Z,96.10
2022-12-26T00:07:08.155Z,96.35
2022-12-26T00:10:11.660Z,93.95
2022-12-26T00:13:38.613Z,90.65
2022-12-26T00:16:40.471Z,97.07
2022-12-26T00:19:43.853Z,96.63
2022-12-26T00:22:49.084Z,98.10
2022-12-26T00:25:52.890Z,101.43
2022-12-26T00:28:56.883Z,98.88
2022-12-26T00:32:00.302Z,98.13
2022-12-26T00:35:03.766Z,107.78
2022-12-26T00:38:08.520Z,109.10
2022-12-26T00:41:13.404Z,100.95
2022-12-26T00:44:17.074Z,109.53
2022-12-26T00:47:20.358Z,108.07
2022-12-26T00:50:25.458Z,102.53
2022-12-26T00:53:31.979Z,103.45
2022-12-26T00:56:35.321Z,102.07
2022-12-26T00:59:38.752Z,100.25
2022-12-26T01:02:42.344Z,114.05
2022-12-26T01:05:47.647Z,116.95
2022-12-26T01:08:53.805Z,116.20
2022-12-26T01:11:57.042Z,117.20
2022-12-26T01:15:00.587Z,122.10
2022-12-26T01:18:04.094Z,109.47
2022-12-26T01:21:10.185Z,117.90
2022-12-26T01:24:14.869Z,107.30
2022-12-26T01:27:18.295Z,121.18
2022-12-26T01:30:21.662Z,121.50
2022-12-26T01:33:24.934Z,114.68
2022-12-26T01:36:28.205Z,114.85
2022-12-26T01:39:33.081Z,119.00
2022-12-26T01:42:39.766Z,115.97
2022-12-26T01:45:44.321Z,109.45
2022-12-26T01:48:48.023Z,117.43
2022-12-26T01:51:54.411Z,112.75
2022-12-26T01:54:59.888Z,116.50
2022-12-26T01:58:06.176Z,116.05
2022-12-26T02:01:10.988Z,104.53
2022-12-26T02:04:31.800Z,111.18
2022-12-26T02:07:36.301Z,108.10
2022-12-26T02:10:51.720Z,98.00
2022-12-26T02:13:56.043Z,93.70
2022-12-26T02:16:59.523Z,98.05
2022-12-26T02:20:11.410Z,97.22
2022-12-26T02:23:43.573Z,88.88
2022-12-26T02:27:15.725Z,89.05
2022-12-26T02:30:43.503Z,93.93
2022-12-26T02:34:02.198Z,85.95
2022-12-26T02:37:21.918Z,87.75
2022-12-26T02:40:42.722Z,89.65
2022-12-26T02:43:55.515Z,86.72
2022-12-26T02:47:07.804Z,86.43
2022-12-26T02:50:34.551Z,83.80
2022-12-26T02:54:04.583Z,86.07
2022-12-26T02:57:30.654Z,91.47
2022-12-26T03:00:55.095Z,78.22
2022-12-26T03:04:23.170Z,87.97
2022-12-26T03:07:47.116Z,87.05
2022-12-26T03:11:10.433Z,82.78
2022-12-26T03:14:18.611Z,91.88
2022-12-26T03:17:27.347Z,79.10
2022-12-26T03:20:35.388Z,88.35
2022-12-26T03:23:42.096Z,79.30
2022-12-26T03:26:50.167Z,83.00
2022-12-26T03:30:12.820Z,80.53
2022-12-26T03:33:30.133Z,75.50
2022-12-26T03:36:42.979Z,86.18
2022-12-26T03:40:12.353Z,76.50
2022-12-26T03:43:42.952Z,69.95
2022-12-26T03:47:19.499Z,74.40
2022-12-26T03:50:50.181Z,85.30
2022-12-26T03:54:17.708Z,98.90
2022-12-26T03:57:42.612Z,76.72
2022-12-26T04:01:04.855Z,79.13
2022-12-26T04:04:44.274Z,74.55
2022-12-26T04:08:14.862Z,75.68
2022-12-26T04:11:42.072Z,75.75
2022-12-26T04:15:06.664Z,73.10
2022-12-26T04:18:31.656Z,78.78
2022-12-26T04:22:00.469Z,72.28
2022-12-26T04:25:50.644Z,68.82
2022-12-26T04:29:08.827Z,68.03
2022-12-26T04:32:34.116Z,67.90
2022-12-26T04:36:01.927Z,70.45
2022-12-26T04:39:25.172Z,64.57
2022-12-26T04:42:46.875Z,74.43
2022-12-26T04:45:52.100Z,77.38
2022-12-26T04:49:14.271Z,75.35
2022-12-26T04:52:17.686Z,79.68
2022-12-26T04:55:22.371Z,70.57
2022-12-26T04:58:27.546Z,70.43
2022-12-26T05:01:49.684Z,78.10
2022-12-26T05:05:10.106Z,71.05
2022-12-26T05:11:39.627Z,76.20
2022-12-26T05:14:42.798Z,76.03
2022-12-26T05:18:05.128Z,73.15
2022-12-26T05:21:29.930Z,67.43
2022-12-26T05:24:55.346Z,64.60
2022-12-26T05:28:21.461Z,72.95
2022-12-26T05:31:28.304Z,77.15
2022-12-26T05:34:34.813Z,65.00
2022-12-26T05:37:38.070Z,70.70
2022-12-26T05:40:41.262Z,67.80
2022-12-26T05:43:44.470Z,72.03
2022-12-26T05:46:48.638Z,66.30
2022-12-26T05:49:53.634Z,75.97
2022-12-26T05:52:58.079Z,62.78
2022-12-26T05:56:05.029Z,65.20
2022-12-26T05:59:08.173Z,64.70
2022-12-26T06:02:11.474Z,69.82
2022-12-26T06:05:16.269Z,62.83
2022-12-26T06:08:19.428Z,64.00
2022-12-26T06:11:23.095Z,65.13
2022-12-26T06:14:26.341Z,56.35
2022-12-26T06:17:29.543Z,59.63
2022-12-26T06:20:34.064Z,58.22
2022-12-26T06:23:37.806Z,66.70
2022-12-26T06:26:41.335Z,60.05
2022-12-26T06:29:44.697Z,69.57
2022-12-26T06:32:47.855Z,65.43
2022-12-26T06:35:52.720Z,62.95
2022-12-26T06:38:56.881Z,60.35
2022-12-26T06:42:00.561Z,62.72
2022-12-26T06:45:04.474Z,54.58
2022-12-26T06:48:08.043Z,57.47
2022-12-26T06:51:14.115Z,55.28
2022-12-26T06:54:17.313Z,55.28
2022-12-26T06:57:20.666Z,51.03
2022-12-26T07:00:24.512Z,60.20
2022-12-26T07:03:29.278Z,57.13
2022-12-26T07:06:36.085Z,62.97
2022-12-26T07:09:39.430Z,64.70
2022-12-26T07:12:42.708Z,207.68
2022-12-26T07:15:46.095Z,80.90
2022-12-26T07:18:49.447Z,297.90
2022-12-26T07:21:54.318Z,310.85
2022-12-26T07:24:57.863Z,490.67
2022-12-26T07:28:01.680Z,450.45
2022-12-26T07:31:05.851Z,330.15
2022-12-26T07:34:09.465Z,73.10
2022-12-26T07:37:14.311Z,255.02
2022-12-26T07:40:17.672Z,155.45
2022-12-26T07:43:20.988Z,76.55
2022-12-26T07:46:26.988Z,111.43
2022-12-26T07:49:30.261Z,58.25
2022-12-26T07:52:36.297Z,71.85
2022-12-26T07:55:39.435Z,56.72
2022-12-26T07:58:42.728Z,246.70
2022-12-26T08:01:46.265Z,178.50
2022-12-26T08:04:49.621Z,50.38
2022-12-26T08:07:54.156Z,59.67
2022-12-26T08:11:02.184Z,61.38
2022-12-26T08:14:05.884Z,62.55
2022-12-26T08:17:10.107Z,55.97
2022-12-26T08:20:13.703Z,57.35
2022-12-26T08:23:18.731Z,57.17
2022-12-26T08:26:23.210Z,152.93
2022-12-26T08:29:26.584Z,59.40
2022-12-26T08:32:29.977Z,59.45
2022-12-26T08:35:34.917Z,55.25
2022-12-26T08:38:40.295Z,57.15
2022-12-26T08:41:43.853Z,63.65
2022-12-26T08:44:47.637Z,59.05
2022-12-26T08:47:51.233Z,58.53
2022-12-26T08:51:02.834Z,64.00
2022-12-26T08:54:08.054Z,67.30
2022-12-26T08:57:11.540Z,63.03
2022-12-26T09:00:16.647Z,69.32
2022-12-26T09:03:20.325Z,65.38
2022-12-26T09:06:23.932Z,64.03
2022-12-26T09:09:28.895Z,67.22
2022-12-26T09:12:32.292Z,62.65
2022-12-26T09:15:35.635Z,60.83
2022-12-26T09:18:39.346Z,72.13
2022-12-26T09:21:43.188Z,57.17
2022-12-26T09:24:48.565Z,53.55
2022-12-26T09:27:58.854Z,64.43
2022-12-26T09:31:03.335Z,75.50
2022-12-26T09:34:08.651Z,54.67
2022-12-26T09:37:11.995Z,51.05
2022-12-26T09:40:24.615Z,58.40
2022-12-26T09:43:39.179Z,48.28
2022-12-26T09:46:53.970Z,54.38
2022-12-26T09:50:04.125Z,50.75
2022-12-26T09:53:12.914Z,72.65
2022-12-26T09:57:01.111Z,89.03
2022-12-26T09:59:50.343Z,78.35
2022-12-26T10:02:56.831Z,68.43
2022-12-26T10:06:11.776Z,70.18
2022-12-26T10:09:33.312Z,47.63
2022-12-26T10:12:43.823Z,37.72
2022-12-26T10:15:51.259Z,64.38
2022-12-26T10:19:03.200Z,68.00
2022-12-26T10:22:20.817Z,52.55
2022-12-26T10:25:33.748Z,53.50
2022-12-26T10:28:46.067Z,39.17
2022-12-26T10:31:53.432Z,36.80
2022-12-26T10:34:56.972Z,40.28
2022-12-26T10:38:06.092Z,36.67
2022-12-26T10:41:14.565Z,36.58
2022-12-26T10:44:25.718Z,53.63
2022-12-26T10:47:37.874Z,36.95
2022-12-26T10:50:44.931Z,42.03
2022-12-26T10:53:52.229Z,89.80
2022-12-26T10:56:58.410Z,59.47
2022-12-26T11:00:06.071Z,49.20
2022-12-26T11:03:12.633Z,52.10
2022-12-26T11:06:16.159Z,35.85
2022-12-26T11:09:40.708Z,35.25
2022-12-26T11:12:50.785Z,35.38
2022-12-26T11:15:58.364Z,34.78
2022-12-26T11:19:02.872Z,36.42
2022-12-26T11:22:27.177Z,36.35
2022-12-26T11:25:38.974Z,36.95
2022-12-26T11:28:42.338Z,37.67
2022-12-26T11:31:57.845Z,32.85
2022-12-26T11:35:01.291Z,37.50
2022-12-26T11:38:07.595Z,34.90
2022-12-26T11:41:30.981Z,42.78
2022-12-26T11:44:41.061Z,36.88
2022-12-26T11:47:47.712Z,31.58
2022-12-26T11:50:52.075Z,30.77
2022-12-26T11:54:19.868Z,28.83
2022-12-26T11:57:28.465Z,27.35
2022-12-26T12:00:32.275Z,27.33
2022-12-26T12:03:48.587Z,25.45
2022-12-26T12:07:02.483Z,22.73
2022-12-26T12:10:33.293Z,22.80
2022-12-26T12:13:49.685Z,24.30
2022-12-26T12:17:02.552Z,29.38
2022-12-26T12:20:30.290Z,23.67
2022-12-26T12:23:48.464Z,29.13
2022-12-26T12:27:04.570Z,25.42
2022-12-26T12:30:18.120Z,25.30
2022-12-26T12:33:38.379Z,27.80
2022-12-26T12:37:00.197Z,31.00
2022-12-26T12:40:14.667Z,31.75
2022-12-26T12:43:23.411Z,25.88
2022-12-26T12:46:36.796Z,30.73
2022-12-26T12:50:00.181Z,31.13
2022-12-26T12:53:14.646Z,26.02
2022-12-26T12:56:26.146Z,27.55
2022-12-26T12:59:39.971Z,30.40
2022-12-26T13:02:47.807Z,32.38
2022-12-26T13:05:59.152Z,27.95
2022-12-26T13:09:08.292Z,31.40
2022-12-26T13:12:19.464Z,32.80
2022-12-26T13:15:31.030Z,33.40
2022-12-26T13:18:38.829Z,32.17
2022-12-26T13:21:44.560Z,33.58
2022-12-26T13:24:56.890Z,31.73
2022-12-26T13:28:09.681Z,38.30
2022-12-26T13:31:14.044Z,50.63
2022-12-26T13:34:19.939Z,39.83
2022-12-26T13:37:55.981Z,38.22
2022-12-26T13:41:24.813Z,34.00
2022-12-26T13:44:27.848Z,38.47
2022-12-26T13:47:37.351Z,31.85
2022-12-26T13:50:55.726Z,33.10
2022-12-26T13:54:03.892Z,33.90
2022-12-26T13:57:38.706Z,33.97
2022-12-26T14:00:46.402Z,37.83
2022-12-26T14:04:04.875Z,36.92
2022-12-26T14:07:22.735Z,37.88
2022-12-26T14:10:39.876Z,38.20
2022-12-26T14:14:06.126Z,40.67
2022-12-26T14:17:23.731Z,39.70
2022-12-26T14:20:42.594Z,39.15
2022-12-26T14:23:53.323Z,37.25
2022-12-26T14:27:09.851Z,41.83
2022-12-26T14:30:25.524Z,43.33
2022-12-26T14:33:36.875Z,39.53
2022-12-26T14:36:47.346Z,42.00
2022-12-26T14:40:06.334Z,40.22
2022-12-26T14:43:27.644Z,43.70
2022-12-26T14:47:04.912Z,46.05
2022-12-26T14:50:40.404Z,40.97
2022-12-26T14:53:46.045Z,43.45
2022-12-26T14:56:50.676Z,46.47
2022-12-26T15:00:26.701Z,46.03
2022-12-26T15:03:47.772Z,44.58
2022-12-26T15:07:20.760Z,43.63
2022-12-26T15:11:02.429Z,50.63
2022-12-26T15:14:33.341Z,48.88
2022-12-26T15:17:47.608Z,54.95
2022-12-26T15:21:38.165Z,57.03
2022-12-26T15:28:48.360Z,54.50
2022-12-26T15:32:06.477Z,56.20
2022-12-26T15:35:20.117Z,59.20
2022-12-26T15:38:33.573Z,55.92
2022-12-26T15:41:44.432Z,53.83
2022-12-26T15:44:58.569Z,56.30
2022-12-26T15:48:08.383Z,60.50
2022-12-26T15:51:15.612Z,56.58
2022-12-26T15:54:35.025Z,65.55
2022-12-26T15:57:50.012Z,61.60
2022-12-26T16:00:55.631Z,65.32
2022-12-26T16:04:01.711Z,70.68
2022-12-26T16:07:10.498Z,82.50
2022-12-26T16:10:30.189Z,94.47
2022-12-26T16:13:34.898Z,71.13
2022-12-26T16:16:39.747Z,86.03
2022-12-26T16:19:44.834Z,77.78
2022-12-26T16:22:47.958Z,77.47
2022-12-26T16:25:56.284Z,88.07
2022-12-26T16:29:01.864Z,81.50
2022-12-26T16:32:06.697Z,74.28
2022-12-26T16:35:20.560Z,67.32
2022-12-26T16:38:28.267Z,63.03
2022-12-26T16:42:01.432Z,63.20
2022-12-26T16:45:07.034Z,63.38
2022-12-26T16:48:14.848Z,64.07
2022-12-26T16:51:39.602Z,58.65
2022-12-26T16:54:43.464Z,68.07
2022-12-26T16:57:48.442Z,70.78
2022-12-26T17:01:02.809Z,71.40
2022-12-26T17:04:17.325Z,72.40
2022-12-26T17:07:21.757Z,69.03
2022-12-26T17:10:28.133Z,68.70
2022-12-26T17:13:33.233Z,60.30
2022-12-26T17:16:36.936Z,55.65
2022-12-26T17:19:42.394Z,64.90
2022-12-26T17:22:45.909Z,67.57
2022-12-26T17:25:50.986Z,62.78
2022-12-26T17:28:56.159Z,53.13
2022-12-26T17:31:59.861Z,45.50
2022-12-26T17:35:06.659Z,44.92
2022-12-26T17:38:20.507Z,50.47
2022-12-26T17:41:24.352Z,50.60
2022-12-26T17:44:50.081Z,50.40
2022-12-26T17:47:56.941Z,53.80
2022-12-26T17:51:02.828Z,60.50
2022-12-26T17:54:06.794Z,46.90
2022-12-26T17:57:21.287Z,51.38
2022-12-26T18:00:30.367Z,46.13
2022-12-26T18:03:35.257Z,51.33
2022-12-26T18:06:42.258Z,45.92
2022-12-26T18:09:47.612Z,47.55
2022-12-26T18:12:53.322Z,45.28
2022-12-26T18:15:59.749Z,51.88
2022-12-26T18:19:04.023Z,62.67
2022-12-26T18:22:12.496Z,51.25
2022-12-26T18:25:24.536Z,53.92
2022-12-26T18:28:35.929Z,58.47
2022-12-26T18:31:49.997Z,59.30
2022-12-26T18:34:57.241Z,54.78
2022-12-26T18:38:03.834Z,56.60
2022-12-26T18:41:14.993Z,55.65
2022-12-26T18:44:29.271Z,52.55
2022-12-26T18:47:37.331Z,46.97
2022-12-26T18:50:40.946Z,48.35
2022-12-26T18:53:44.557Z,49.25
2022-12-26T18:56:48.035Z,47.95
2022-12-26T18:59:53.003Z,49.50
2022-12-26T19:02:58.354Z,54.83
2022-12-26T19:06:01.894Z,51.05
2022-12-26T19:09:07.969Z,58.05
2022-12-26T19:12:11.890Z,60.08
2022-12-26T19:15:17.173Z,57.13
2022-12-26T19:18:22.265Z,54.15
2022-12-26T19:21:26.595Z,65.22
2022-12-26T19:24:34.542Z,56.90
2022-12-26T19:27:38.583Z,59.13
2022-12-26T19:30:42.325Z,63.00
2022-12-26T19:33:50.505Z,61.80
2022-12-26T19:36:54.332Z,58.35
2022-12-26T19:40:00.140Z,61.83
2022-12-26T19:43:03.725Z,66.40
2022-12-26T19:46:11.600Z,73.43
2022-12-26T19:49:17.545Z,71.78
2022-12-26T19:52:21.285Z,96.53
2022-12-26T19:55:24.832Z,69.18
2022-12-26T19:58:32.462Z,60.08
2022-12-26T20:01:36.255Z,54.35
2022-12-26T20:04:43.047Z,58.67
2022-12-26T20:07:47.994Z,60.40
2022-12-26T20:10:55.875Z,60.42
2022-12-26T20:14:08.275Z,67.82
2022-12-26T20:17:13.684Z,60.25
2022-12-26T20:20:22.478Z,64.97
2022-12-26T20:23:29.835Z,66.05
2022-12-26T20:26:38.089Z,68.47
2022-12-26T20:29:44.341Z,69.95
2022-12-26T20:32:56.369Z,71.72
2022-12-26T20:36:06.653Z,68.20
2022-12-26T20:39:16.524Z,90.47
2022-12-26T20:42:23.767Z,273.65
2022-12-26T20:45:28.686Z,195.88
2022-12-26T20:48:33.927Z,96.45
2022-12-26T20:51:42.752Z,70.70
2022-12-26T20:54:49.392Z,80.68
2022-12-26T20:57:53.018Z,79.47
2022-12-26T21:01:00.746Z,102.63
2022-12-26T21:04:06.202Z,79.30
2022-12-26T21:07:12.769Z,97.50
2022-12-26T21:10:17.559Z,102.70
2022-12-26T21:13:25.807Z,83.97
2022-12-26T21:16:36.855Z,94.63
2022-12-26T21:19:41.855Z,85.88
2022-12-26T21:22:52.775Z,83.80
2022-12-26T21:25:59.247Z,84.35
2022-12-26T21:29:04.822Z,101.65
2022-12-26T21:32:11.056Z,88.70
2022-12-26T21:35:14.955Z,93.78
2022-12-26T21:38:21.674Z,96.15
2022-12-26T21:41:27.603Z,104.95
2022-12-26T21:44:31.123Z,90.95
2022-12-26T21:47:34.585Z,91.43
2022-12-26T21:50:38.960Z,209.93
2022-12-26T21:53:43.906Z,85.63
2022-12-26T21:56:46.313Z,94.95
2022-12-26T21:59:59.282Z,91.00
2022-12-26T22:03:23.177Z,86.82
2022-12-26T22:06:27.504Z,89.97
2022-12-26T22:09:32.903Z,85.72
2022-12-26T22:12:53.418Z,82.57
2022-12-26T22:16:08.194Z,86.00
2022-12-26T22:19:12.424Z,82.82
2022-12-26T22:22:16.378Z,79.93
2022-12-26T22:25:23.039Z,82.40
2022-12-26T22:28:29.566Z,75.75
2022-12-26T22:31:39.016Z,78.03
2022-12-26T22:34:43.810Z,79.25
2022-12-26T22:37:48.619Z,76.20
2022-12-26T22:40:59.003Z,75.78
2022-12-26T22:47:05.627Z,73.88
2022-12-26T22:50:11.842Z,70.78
2022-12-26T22:53:15.678Z,77.97
2022-12-26T22:56:21.488Z,73.22
2022-12-26T22:59:58.128Z,75.82
2022-12-26T23:02:48.167Z,75.72
2022-12-26T23:05:52.390Z,80.45
2022-12-26T23:08:57.874Z,78.22
2022-12-26T23:12:28.851Z,78.45
2022-12-26T23:15:32.491Z,77.05
2022-12-26T23:18:59.003Z,80.15
2022-12-26T23:22:04.036Z,82.90
2022-12-26T23:25:08.519Z,82.28
2022-12-26T23:28:30.731Z,84.50
2022-12-26T23:31:34.116Z,77.35
2022-12-26T23:34:38.254Z,79.07
2022-12-26T23:37:42.304Z,84.15
2022-12-26T23:40:45.740Z,94.60
2022-12-26T23:43:50.817Z,88.07
2022-12-26T23:46:54.209Z,92.22
2022-12-26T23:49:57.628Z,96.43
2022-12-26T23:53:01.461Z,88.50
2022-12-26T23:56:08.715Z,84.50
2022-12-26T23:59:13.513Z,77.70
